Terminal Aerodrome Forecast
Issued by NWS Wilmington, OH

Current Version | Previous Version | Graphics & Text | Print | Product List | Glossary On
Versions: 1 2 3 4 5 6 7 8 9 10 11 12 13 14 15 16 17 18 19 20 21 22 23 24 25 26
000
FTUS41 KILN 271300 AAA
TAFCMH
TAF AMD
KCMH 271311Z 2713/2812 21010KT 5SM HZ OVC006
     FM271500 23010G18KT P6SM VCSH BKN025
     FM271700 26012G20KT P6SM -SHRA VCTS BKN035CB
     FM272200 28014G23KT P6SM VCSH BKN040
     FM280100 28010KT P6SM SCT030 BKN250=

USA.gov is the U.S. government's official web portal to all federal, state and local government web resources and services.